createdAt,value
2022-08-14T00:04:36.098Z,95379.82
2022-08-14T00:07:07.639Z,95382.23
2022-08-14T00:12:40.275Z,95372.63
2022-08-14T00:18:31.006Z,95380.62
2022-08-14T00:23:54.237Z,95349.00
2022-08-14T00:26:42.816Z,95353.84
2022-08-14T00:32:52.577Z,95341.78
2022-08-14T00:35:11.749Z,95345.56
2022-08-14T00:40:48.681Z,95347.50
2022-08-14T00:46:23.425Z,95346.86
2022-08-14T00:52:00.645Z,95335.74
2022-08-14T00:54:58.090Z,95339.95
2022-08-14T01:00:37.559Z,95327.59
2022-08-14T01:06:12.592Z,95322.48
2022-08-14T01:09:02.198Z,95322.53
2022-08-14T01:12:02.927Z,95321.97
2022-08-14T01:14:41.670Z,95322.98
2022-08-14T01:17:52.281Z,95319.67
2022-08-14T01:23:22.982Z,95300.65
2022-08-14T01:29:04.211Z,95311.91
2022-08-14T01:35:17.791Z,95304.82
2022-08-14T01:37:24.876Z,95303.67
2022-08-14T01:42:56.699Z,95294.25
2022-08-14T01:46:06.301Z,95296.05
2022-08-14T01:51:28.423Z,95290.77
2022-08-14T01:54:20.405Z,95290.98
2022-08-14T01:57:11.905Z,95290.17
2022-08-14T02:02:48.018Z,95295.64
2022-08-14T02:08:34.694Z,95283.70
2022-08-14T02:14:07.566Z,95277.41
2022-08-14T02:16:55.404Z,95277.84
2022-08-14T02:19:43.754Z,95268.61
2022-08-14T02:28:24.751Z,95253.35
2022-08-14T02:34:04.620Z,95245.50
2022-08-14T02:37:04.451Z,95240.62
2022-08-14T02:42:37.169Z,95228.23
2022-08-14T02:45:33.487Z,95233.91
2022-08-14T02:51:00.816Z,95213.38
2022-08-14T02:53:51.923Z,95204.92
2022-08-14T02:59:29.488Z,95194.73
2022-08-14T03:02:49.235Z,95193.94
2022-08-14T03:08:07.947Z,95199.03
2022-08-14T03:13:44.532Z,95193.77
2022-08-14T03:16:35.717Z,95190.22
2022-08-14T03:22:09.307Z,95191.02
2022-08-14T03:24:58.890Z,95193.38
2022-08-14T03:30:39.981Z,95189.83
2022-08-14T03:37:38.855Z,95183.55
2022-08-14T03:41:55.295Z,95178.48
2022-08-14T03:45:27.700Z,95170.44
2022-08-14T03:50:31.101Z,95168.67
2022-08-14T03:53:13.989Z,95173.00
2022-08-14T03:58:51.672Z,95173.54
2022-08-14T04:04:22.332Z,95178.02
2022-08-14T04:10:02.776Z,95174.30
2022-08-14T04:15:31.296Z,95167.69
2022-08-14T04:21:04.713Z,95163.38
2022-08-14T04:29:28.132Z,95180.42
2022-08-14T04:35:07.855Z,95177.28
2022-08-14T04:38:36.788Z,95174.54
2022-08-14T04:41:17.774Z,95180.22
2022-08-14T04:47:07.279Z,95181.41
2022-08-14T04:52:44.177Z,95181.23
2022-08-14T04:55:34.078Z,95189.44
2022-08-14T05:01:19.637Z,95184.75
2022-08-14T05:04:07.106Z,95182.78
2022-08-14T05:06:55.961Z,95182.38
2022-08-14T05:13:11.249Z,95184.34
2022-08-14T05:19:17.068Z,95191.02
2022-08-14T05:24:18.942Z,95174.87
2022-08-14T05:27:09.454Z,95167.69
2022-08-14T05:29:58.916Z,95168.70
2022-08-14T05:35:25.338Z,95151.47
2022-08-14T05:38:30.977Z,95142.92
2022-08-14T05:46:29.872Z,95123.87
2022-08-14T05:49:18.278Z,95121.52
2022-08-14T05:57:50.355Z,95112.80
2022-08-14T06:00:42.170Z,95110.61
2022-08-14T06:03:34.734Z,95107.39
2022-08-14T06:06:25.224Z,95102.58
2022-08-14T06:12:04.916Z,95093.78
2022-08-14T06:18:03.734Z,95099.87
2022-08-14T06:20:52.755Z,95093.34
2022-08-14T06:26:33.968Z,95089.16
2022-08-14T06:29:25.331Z,95091.38
2022-08-14T06:35:12.488Z,95107.31
2022-08-14T06:40:43.061Z,95109.59
2022-08-14T06:43:30.650Z,95104.61
2022-08-14T06:46:23.064Z,95103.79
2022-08-14T06:49:10.879Z,95103.79
2022-08-14T06:54:50.035Z,95103.38
2022-08-14T07:00:27.107Z,95107.36
2022-08-14T07:05:59.469Z,95108.72
2022-08-14T07:11:44.759Z,95107.62
2022-08-14T07:14:34.158Z,95111.19
2022-08-14T07:17:23.230Z,95107.87
2022-08-14T07:20:31.214Z,95108.08
2022-08-14T07:23:20.693Z,95116.00
2022-08-14T07:28:49.290Z,95117.41
2022-08-14T07:34:40.865Z,95121.30
2022-08-14T07:37:28.102Z,95132.37
2022-08-14T07:40:27.367Z,95126.92
2022-08-14T07:46:01.047Z,95121.80
2022-08-14T07:51:36.604Z,95109.77
2022-08-14T07:57:26.298Z,95085.61
2022-08-14T08:03:03.923Z,95131.60
2022-08-14T08:08:39.308Z,95123.00
2022-08-14T08:14:56.765Z,95125.84
2022-08-14T08:20:21.644Z,95120.19
2022-08-14T08:31:33.001Z,95110.16
2022-08-14T08:37:07.241Z,95105.86
2022-08-14T08:42:38.856Z,95095.33
2022-08-14T08:48:20.687Z,95094.71
2022-08-14T08:53:42.471Z,95088.85
2022-08-14T08:59:30.937Z,95088.06
2022-08-14T09:05:03.214Z,95085.80
2022-08-14T09:10:37.207Z,95101.09
2022-08-14T09:16:18.595Z,95098.13
2022-08-14T09:21:42.656Z,95099.89
2022-08-14T09:27:22.229Z,95109.36
2022-08-14T09:33:00.097Z,95116.12
2022-08-14T09:35:57.038Z,95124.81
2022-08-14T09:38:50.766Z,95122.61
2022-08-14T09:42:20.280Z,95114.39
2022-08-14T09:47:46.507Z,95081.32
2022-08-14T09:54:19.353Z,95076.39
2022-08-14T09:56:45.610Z,95079.23
2022-08-14T10:02:45.681Z,95084.16
2022-08-14T10:08:26.414Z,95074.30
2022-08-14T10:14:29.554Z,95085.59
2022-08-14T10:19:52.541Z,95088.85
2022-08-14T10:23:14.696Z,95076.78
2022-08-14T10:31:45.366Z,95061.77
2022-08-14T10:34:36.574Z,95052.75
2022-08-14T10:40:38.350Z,95051.67
2022-08-14T10:46:03.320Z,95037.70
2022-08-14T10:52:01.818Z,95044.52
2022-08-14T10:57:48.758Z,95038.87
2022-08-14T11:06:15.142Z,95040.09
2022-08-14T11:12:44.092Z,95044.80
2022-08-14T11:14:59.448Z,95040.45
2022-08-14T11:17:47.385Z,95045.38
2022-08-14T11:20:39.421Z,95043.88
2022-08-14T11:23:37.746Z,95050.39
2022-08-14T11:26:23.657Z,95055.31
2022-08-14T11:32:03.291Z,95053.55
2022-08-14T11:37:43.907Z,95059.55
2022-08-14T11:40:36.087Z,95067.35
2022-08-14T11:43:29.462Z,95064.16
2022-08-14T11:46:17.744Z,95069.08
2022-08-14T11:51:56.826Z,95070.02
2022-08-14T11:57:33.480Z,95067.38
2022-08-14T12:00:21.785Z,95062.09
2022-08-14T12:03:14.380Z,95062.94
2022-08-14T12:08:53.911Z,95060.58
2022-08-14T12:11:47.377Z,95072.97
2022-08-14T12:14:39.646Z,95067.31
2022-08-14T12:17:25.943Z,95067.97
2022-08-14T12:26:31.936Z,95077.93
2022-08-14T12:32:08.823Z,95074.77
2022-08-14T12:34:58.100Z,95080.52
2022-08-14T12:37:50.863Z,95081.75
2022-08-14T12:40:48.426Z,95070.06
2022-08-14T12:46:35.225Z,95067.44
2022-08-14T12:52:17.933Z,95053.99
2022-08-14T12:58:00.837Z,95052.48
2022-08-14T13:01:12.634Z,95057.31
2022-08-14T13:06:34.216Z,95050.39
2022-08-14T13:12:32.216Z,95039.03
2022-08-14T13:18:01.092Z,95028.49
2022-08-14T13:23:37.604Z,95019.33
2022-08-14T13:29:14.696Z,95023.30
2022-08-14T13:32:05.429Z,95016.64
2022-08-14T13:40:30.277Z,95005.41
2022-08-14T13:46:04.439Z,95012.84
2022-08-14T13:51:47.293Z,94997.81
2022-08-14T13:54:38.544Z,94993.80
2022-08-14T14:00:15.167Z,94982.50
2022-08-14T14:05:54.860Z,94975.05
2022-08-14T14:11:34.586Z,94980.56
2022-08-14T14:17:05.508Z,94975.14
2022-08-14T14:23:02.203Z,94964.55
2022-08-14T14:25:43.224Z,94965.23
2022-08-14T14:31:16.875Z,94958.10
2022-08-14T14:37:07.103Z,94964.56
2022-08-14T14:42:55.658Z,94959.27
2022-08-14T14:45:46.237Z,94965.02
2022-08-14T14:51:15.550Z,94957.11
2022-08-14T14:54:06.277Z,94965.30
2022-08-14T14:56:55.717Z,94964.54
2022-08-14T14:59:45.377Z,94963.13
2022-08-14T15:05:18.069Z,94960.05
2022-08-14T15:10:57.891Z,94956.36
2022-08-14T15:13:53.227Z,94961.29
2022-08-14T15:19:27.681Z,94953.73
2022-08-14T15:25:04.190Z,94956.52
2022-08-14T15:30:41.994Z,94962.65
2022-08-14T15:34:13.379Z,94969.80
2022-08-14T15:36:40.123Z,94968.38
2022-08-14T15:39:33.988Z,94961.53
2022-08-14T15:47:51.914Z,94976.80
2022-08-14T15:53:22.977Z,94971.97
2022-08-14T15:58:49.663Z,94981.81
2022-08-14T16:04:28.911Z,94981.09
2022-08-14T16:07:22.175Z,94977.54
2022-08-14T16:12:51.743Z,94982.09
2022-08-14T16:18:35.943Z,94976.17
2022-08-14T16:24:27.506Z,94975.91
2022-08-14T16:32:55.448Z,94969.52
2022-08-14T16:35:42.575Z,94971.19
2022-08-14T16:41:29.596Z,94965.13
2022-08-14T16:47:07.363Z,94953.34
2022-08-14T16:50:03.812Z,94955.75
2022-08-14T16:52:56.088Z,94954.31
2022-08-14T16:58:29.568Z,94942.38
2022-08-14T17:04:09.077Z,94951.37
2022-08-14T17:09:43.203Z,94945.95
2022-08-14T17:12:35.187Z,94938.42
2022-08-14T17:15:23.474Z,94944.74
2022-08-14T17:18:15.066Z,94946.72
2022-08-14T17:21:19.465Z,94947.19
2022-08-14T17:29:54.380Z,94944.88
2022-08-14T17:32:55.777Z,94948.70
2022-08-14T17:35:57.931Z,94948.08
2022-08-14T17:41:23.296Z,94943.68
2022-08-14T17:46:58.000Z,94949.10
2022-08-14T17:52:41.420Z,94958.95
2022-08-14T17:56:03.377Z,94962.78
2022-08-14T17:58:24.262Z,94965.06
2022-08-14T18:01:15.576Z,94956.70
2022-08-14T18:04:25.147Z,94958.27
2022-08-14T18:07:06.201Z,94960.82
2022-08-14T18:12:36.612Z,94965.27
2022-08-14T18:18:13.772Z,94962.65
2022-08-14T18:23:52.127Z,94956.89
2022-08-14T18:26:41.617Z,94958.68
2022-08-14T18:29:31.714Z,94957.70
2022-08-14T18:35:45.972Z,94962.18
2022-08-14T18:44:15.648Z,94964.53
2022-08-14T18:53:15.223Z,94962.33
2022-08-14T18:58:57.282Z,94971.16
2022-08-14T19:04:41.841Z,94978.28
2022-08-14T19:07:33.852Z,94968.98
2022-08-14T19:16:22.734Z,94987.87
2022-08-14T19:21:57.766Z,94995.88
2022-08-14T19:24:50.238Z,94986.98
2022-08-14T19:30:29.343Z,95000.03
2022-08-14T19:37:05.314Z,95007.76
2022-08-14T19:42:46.768Z,95010.88
2022-08-14T19:45:30.120Z,95009.25
2022-08-14T19:51:12.243Z,95004.81
2022-08-14T19:56:49.577Z,95015.27
2022-08-14T19:59:57.611Z,95013.86
2022-08-14T20:05:18.251Z,95003.06
2022-08-14T20:08:07.522Z,95003.06
2022-08-14T20:13:45.118Z,95000.61
2022-08-14T20:16:36.888Z,95001.06
2022-08-14T20:19:29.138Z,95000.36
2022-08-14T20:25:15.114Z,94988.63
2022-08-14T20:31:22.234Z,94982.56
2022-08-14T20:34:19.099Z,94983.72
2022-08-14T20:39:54.285Z,94986.23
2022-08-14T20:45:28.839Z,94981.30
2022-08-14T20:48:53.242Z,94984.06
2022-08-14T20:51:24.342Z,94985.72
2022-08-14T20:59:47.091Z,94991.95
2022-08-14T21:02:50.173Z,94998.00
2022-08-14T21:05:33.712Z,94995.26
2022-08-14T21:14:24.850Z,94994.42
2022-08-14T21:22:37.028Z,95000.19
2022-08-14T21:28:29.938Z,95006.50
2022-08-14T21:33:56.483Z,95004.17
2022-08-14T21:39:36.337Z,95000.11
2022-08-14T21:42:27.968Z,95006.84
2022-08-14T21:48:09.185Z,95013.61
2022-08-14T21:53:58.547Z,95027.52
2022-08-14T21:56:37.122Z,95024.82
2022-08-14T22:02:32.967Z,95027.77
2022-08-14T22:08:11.938Z,95041.41
2022-08-14T22:13:51.381Z,95051.62
2022-08-14T22:22:26.097Z,95046.41
2022-08-14T22:25:22.538Z,95050.72
2022-08-14T22:28:17.839Z,95053.66
2022-08-14T22:33:58.063Z,95050.54
2022-08-14T22:40:17.379Z,95050.54
2022-08-14T22:42:22.692Z,95054.51
2022-08-14T22:47:57.448Z,95046.89
2022-08-14T22:53:29.143Z,95047.42
2022-08-14T22:59:04.875Z,95059.48
2022-08-14T23:04:54.261Z,95064.94
2022-08-14T23:09:00.128Z,95075.55
2022-08-14T23:10:32.093Z,95079.12
2022-08-14T23:16:02.309Z,95072.84
2022-08-14T23:21:46.427Z,95072.27
2022-08-14T23:27:20.994Z,95101.14
2022-08-14T23:30:33.888Z,95106.41
2022-08-14T23:36:31.583Z,95131.45
2022-08-14T23:41:46.267Z,95114.55
2022-08-14T23:44:31.272Z,95113.53
2022-08-14T23:47:26.596Z,95112.56
2022-08-14T23:53:07.454Z,95108.63
2022-08-14T23:55:47.026Z,95109.63
